Bissett, Canada
Current Conditions -  °F | °C
As of 9:00 PM on Saturday 22 Nov 2014 (Local Time) from CYRL Reporting Station
Blowing Snow Blowing Snow  
Wind Chill: 12°   Ceiling: 2000
Heat Index: 23°   Visibility: 3mi
Dew Point: 21°   Wind: 10mph
Humidity: 93%   Direction: 110°ESE
Pressure: 29.52"   Gusts: NA
Location:  51.02°N, 95.67°W
Report Text: CYRL 230300Z 11009KT 3SM -SHSN DRSN OVC020 M05/M06 A2952 RMK SN6SC2 CVCTV CLD EMBD LAST STFD OBS/NEXT 231000UTC SLP021
Loading
Personal Weather Stations






























Interactive Weather Map New forecast layout! Learn more

10-Day Weather Forecast

Advertisements
Track Severe Weather on mobile